createdAt,value
2018-12-08T00:02:10.094Z,11.93
2018-12-08T00:04:39.432Z,12.50
2018-12-08T00:07:08.874Z,12.21
2018-12-08T00:09:38.214Z,11.42
2018-12-08T00:12:07.400Z,11.41
2018-12-08T00:14:36.964Z,12.27
2018-12-08T00:17:06.156Z,11.76
2018-12-08T00:19:35.511Z,11.86
2018-12-08T00:22:04.672Z,11.45
2018-12-08T00:24:34.204Z,11.84
2018-12-08T00:27:03.497Z,11.82
2018-12-08T00:29:32.993Z,11.70
2018-12-08T00:32:02.250Z,11.95
2018-12-08T00:34:31.742Z,11.81
2018-12-08T00:37:01.319Z,11.64
2018-12-08T00:39:30.821Z,11.37
2018-12-08T00:42:00.106Z,10.74
2018-12-08T00:44:29.618Z,10.50
2018-12-08T00:46:59.665Z,10.29
2018-12-08T00:49:29.388Z,10.08
2018-12-08T00:51:58.852Z,10.50
2018-12-08T00:54:28.248Z,10.30
2018-12-08T00:56:57.404Z,10.44
2018-12-08T00:59:26.700Z,10.70
2018-12-08T01:01:56.039Z,10.58
2018-12-08T01:04:25.348Z,10.37
2018-12-08T01:06:54.596Z,10.37
2018-12-08T01:09:23.796Z,10.47
2018-12-08T01:11:53.430Z,10.12
2018-12-08T01:14:22.559Z,10.27
2018-12-08T01:16:52.540Z,10.37
2018-12-08T01:19:21.909Z,10.63
2018-12-08T01:21:51.066Z,10.67
2018-12-08T01:24:20.106Z,10.77
2018-12-08T01:26:49.531Z,11.20
2018-12-08T01:29:19.293Z,10.85
2018-12-08T01:31:49.056Z,10.94
2018-12-08T01:34:18.143Z,10.99
2018-12-08T01:36:47.258Z,10.90
2018-12-08T01:39:16.588Z,11.41
2018-12-08T01:41:45.728Z,11.14
2018-12-08T01:44:15.107Z,11.25
2018-12-08T01:46:44.344Z,11.38
2018-12-08T01:49:13.472Z,11.11
2018-12-08T01:51:42.981Z,11.46
2018-12-08T01:54:12.476Z,11.44
2018-12-08T01:56:41.919Z,11.43
2018-12-08T01:59:11.142Z,10.74
2018-12-08T02:01:40.341Z,10.92
2018-12-08T02:04:09.499Z,11.02
2018-12-08T02:06:38.675Z,11.16
2018-12-08T02:09:08.383Z,10.98
2018-12-08T02:11:37.721Z,11.22
2018-12-08T02:14:06.969Z,11.31
2018-12-08T02:16:36.117Z,11.36
2018-12-08T02:19:06.085Z,11.59
2018-12-08T02:21:35.301Z,11.20
2018-12-08T02:24:04.441Z,11.01
2018-12-08T02:26:33.800Z,11.14
2018-12-08T02:29:03.052Z,10.88
2018-12-08T02:31:32.201Z,10.81
2018-12-08T02:34:01.603Z,11.18
2018-12-08T02:36:31.159Z,10.61
2018-12-08T02:39:00.446Z,11.06
2018-12-08T02:41:29.667Z,10.90
2018-12-08T02:43:59.050Z,10.75
2018-12-08T02:46:28.193Z,10.65
2018-12-08T02:48:57.551Z,10.85
2018-12-08T02:51:27.029Z,10.63
2018-12-08T02:53:56.164Z,10.63
2018-12-08T02:56:25.294Z,10.87
2018-12-08T02:58:54.404Z,10.91
2018-12-08T03:01:24.052Z,11.38
2018-12-08T03:03:53.433Z,11.02
2018-12-08T03:06:22.954Z,10.16
2018-12-08T03:08:52.918Z,10.40
2018-12-08T03:11:22.156Z,10.81
2018-12-08T03:13:51.788Z,11.10
2018-12-08T03:16:21.294Z,11.49
2018-12-08T03:18:51.630Z,11.19
2018-12-08T03:21:20.758Z,10.72
2018-12-08T03:23:49.999Z,9.70
2018-12-08T03:26:19.172Z,10.05
2018-12-08T03:28:48.859Z,10.11
2018-12-08T03:31:18.236Z,10.31
2018-12-08T03:33:47.713Z,10.68
2018-12-08T03:36:17.123Z,10.75
2018-12-08T03:38:46.485Z,10.86
2018-12-08T03:41:15.804Z,10.74
2018-12-08T03:43:45.237Z,10.51
2018-12-08T03:46:14.557Z,10.31
2018-12-08T03:48:43.926Z,10.65
2018-12-08T03:51:13.060Z,10.60
2018-12-08T03:53:42.743Z,10.63
2018-12-08T03:56:12.307Z,10.78
2018-12-08T03:58:41.613Z,10.99
2018-12-08T04:01:10.770Z,10.09
2018-12-08T04:03:40.378Z,10.27
2018-12-08T04:06:09.971Z,10.10
2018-12-08T04:08:39.204Z,10.22
2018-12-08T04:11:08.540Z,10.50
2018-12-08T04:13:37.862Z,9.93
2018-12-08T04:16:07.087Z,9.01
2018-12-08T04:18:36.493Z,8.95
2018-12-08T04:21:06.162Z,9.55
2018-12-08T04:23:35.316Z,10.35
2018-12-08T04:26:05.314Z,10.15
2018-12-08T04:28:35.043Z,9.13
2018-12-08T04:31:04.791Z,9.68
2018-12-08T04:33:34.239Z,10.31
2018-12-08T04:36:03.407Z,10.15
2018-12-08T04:38:32.660Z,10.56
2018-12-08T04:41:02.142Z,10.55
2018-12-08T04:43:31.690Z,9.96
2018-12-08T04:46:00.912Z,10.47
2018-12-08T04:48:30.255Z,9.74
2018-12-08T04:50:59.440Z,10.08
2018-12-08T04:53:28.935Z,10.14
2018-12-08T04:55:58.047Z,10.51
2018-12-08T04:58:27.227Z,9.33
2018-12-08T05:00:56.659Z,10.38
2018-12-08T05:03:25.776Z,9.43
2018-12-08T05:05:55.355Z,10.01
2018-12-08T05:08:24.807Z,10.09
2018-12-08T05:10:54.259Z,9.70
2018-12-08T05:13:23.751Z,9.64
2018-12-08T05:15:53.108Z,9.76
2018-12-08T05:18:22.239Z,10.12
2018-12-08T05:20:51.460Z,10.22
2018-12-08T05:23:20.560Z,9.85
2018-12-08T05:25:49.683Z,9.87
2018-12-08T05:28:19.116Z,9.92
2018-12-08T05:30:48.242Z,9.81
2018-12-08T05:33:18.168Z,9.72
2018-12-08T05:35:47.332Z,9.50
2018-12-08T05:38:16.864Z,9.87
2018-12-08T05:40:45.941Z,9.63
2018-12-08T05:43:15.060Z,9.64
2018-12-08T05:45:44.479Z,9.34
2018-12-08T05:48:13.695Z,9.17
2018-12-08T05:50:43.124Z,9.05
2018-12-08T05:53:12.247Z,9.44
2018-12-08T05:55:41.366Z,9.50
2018-12-08T05:58:10.513Z,9.27
2018-12-08T06:00:40.255Z,9.80
2018-12-08T06:03:11.352Z,9.47
2018-12-08T06:05:40.630Z,9.14
2018-12-08T06:08:09.980Z,9.42
2018-12-08T06:10:39.429Z,9.20
2018-12-08T06:13:08.544Z,9.58
2018-12-08T06:15:38.099Z,10.14
2018-12-08T06:18:07.946Z,9.89
2018-12-08T06:20:37.137Z,10.19
2018-12-08T06:23:06.799Z,10.48
2018-12-08T06:25:38.719Z,10.40
2018-12-08T06:28:25.625Z,10.28
2018-12-08T06:30:55.655Z,10.23
2018-12-08T06:33:25.019Z,10.08
2018-12-08T06:35:54.099Z,10.08
2018-12-08T06:38:25.349Z,10.01
2018-12-08T06:40:54.622Z,10.09
2018-12-08T06:43:23.740Z,10.03
2018-12-08T06:45:53.304Z,10.20
2018-12-08T06:48:22.629Z,10.19
2018-12-08T06:50:51.781Z,10.16
2018-12-08T06:53:21.131Z,10.16
2018-12-08T06:55:50.251Z,10.10
2018-12-08T06:58:19.803Z,10.14
2018-12-08T07:00:49.131Z,10.11
2018-12-08T07:03:18.706Z,10.17
2018-12-08T07:05:48.252Z,10.28
2018-12-08T07:08:17.774Z,10.29
2018-12-08T07:10:46.905Z,10.13
2018-12-08T07:13:16.194Z,10.33
2018-12-08T07:15:45.344Z,10.36
2018-12-08T07:18:14.420Z,10.18
2018-12-08T07:20:43.823Z,10.13
2018-12-08T07:23:13.264Z,10.06
2018-12-08T07:25:42.635Z,10.13
2018-12-08T07:28:12.044Z,10.15
2018-12-08T07:30:41.129Z,10.26
2018-12-08T07:33:10.636Z,10.18
2018-12-08T07:35:39.921Z,9.93
2018-12-08T07:38:09.065Z,10.34
2018-12-08T07:40:38.193Z,10.23
2018-12-08T07:43:07.407Z,10.35
2018-12-08T07:45:36.514Z,9.99
2018-12-08T07:48:05.615Z,9.14
2018-12-08T07:50:34.699Z,10.18
2018-12-08T07:53:04.482Z,10.08
2018-12-08T07:58:12.962Z,9.93
2018-12-08T08:00:42.293Z,10.23
2018-12-08T08:03:11.582Z,10.31
2018-12-08T08:05:40.720Z,10.43
2018-12-08T08:08:10.279Z,10.28
2018-12-08T08:10:39.736Z,10.52
2018-12-08T08:13:09.440Z,10.41
2018-12-08T08:15:39.006Z,10.46
2018-12-08T08:18:08.315Z,10.40
2018-12-08T08:20:37.431Z,10.42
2018-12-08T08:23:06.988Z,10.40
2018-12-08T08:25:36.131Z,10.42
2018-12-08T08:28:05.203Z,10.58
2018-12-08T08:30:34.599Z,10.43
2018-12-08T08:33:03.752Z,10.24
2018-12-08T08:35:33.079Z,10.24
2018-12-08T08:38:02.328Z,9.66
2018-12-08T08:40:31.542Z,9.67
2018-12-08T08:43:00.717Z,9.76
2018-12-08T08:45:29.991Z,10.16
2018-12-08T08:47:59.194Z,10.25
2018-12-08T08:50:28.664Z,9.60
2018-12-08T08:52:57.769Z,10.05
2018-12-08T08:55:26.926Z,9.88
2018-12-08T08:57:56.277Z,10.08
2018-12-08T09:00:25.348Z,9.99
2018-12-08T09:02:54.896Z,10.20
2018-12-08T09:05:24.142Z,10.51
2018-12-08T09:07:53.685Z,10.48
2018-12-08T09:10:22.832Z,10.41
2018-12-08T09:12:52.005Z,10.64
2018-12-08T09:15:21.627Z,10.87
2018-12-08T09:17:50.763Z,10.94
2018-12-08T09:20:19.950Z,10.57
2018-12-08T09:22:49.266Z,10.69
2018-12-08T09:25:18.387Z,10.94
2018-12-08T09:27:49.176Z,10.95
2018-12-08T09:30:18.954Z,10.68
2018-12-08T09:32:48.283Z,10.58
2018-12-08T09:35:17.565Z,10.89
2018-12-08T09:37:46.882Z,11.06
2018-12-08T09:40:16.108Z,10.81
2018-12-08T09:42:45.616Z,10.90
2018-12-08T09:45:14.985Z,10.94
2018-12-08T09:47:44.362Z,10.79
2018-12-08T09:50:13.536Z,10.86
2018-12-08T09:52:43.045Z,10.75
2018-12-08T09:55:12.131Z,10.35
2018-12-08T09:57:41.600Z,10.85
2018-12-08T10:00:10.795Z,10.86
2018-12-08T10:02:39.996Z,10.72
2018-12-08T10:05:09.183Z,11.13
2018-12-08T10:07:38.611Z,11.11
2018-12-08T10:10:10.788Z,10.95
2018-12-08T10:12:40.205Z,10.94
2018-12-08T10:15:09.601Z,11.17
2018-12-08T10:17:38.761Z,10.43
2018-12-08T10:20:08.215Z,11.13
2018-12-08T10:22:37.564Z,10.87
2018-12-08T10:25:07.400Z,11.10
2018-12-08T10:27:36.697Z,11.45
2018-12-08T10:30:07.546Z,10.47
2018-12-08T10:32:36.676Z,11.16
2018-12-08T10:35:10.339Z,11.05
2018-12-08T10:37:40.342Z,11.23
2018-12-08T10:40:11.204Z,11.31
2018-12-08T10:42:40.323Z,10.76
2018-12-08T10:45:10.074Z,10.86
2018-12-08T10:47:39.946Z,11.01
2018-12-08T10:50:11.470Z,10.72
2018-12-08T10:52:40.647Z,11.12
2018-12-08T10:55:10.712Z,11.19
2018-12-08T10:57:39.892Z,11.05
2018-12-08T11:03:02.552Z,11.22
2018-12-08T11:05:31.656Z,11.14
2018-12-08T11:08:01.036Z,10.68
2018-12-08T11:10:30.351Z,11.39
2018-12-08T11:12:59.537Z,11.28
2018-12-08T11:15:28.891Z,10.71
2018-12-08T11:17:58.252Z,11.32
2018-12-08T11:20:27.493Z,11.72
2018-12-08T11:22:56.604Z,10.66
2018-12-08T11:25:26.183Z,10.89
2018-12-08T11:27:55.418Z,11.35
2018-12-08T11:30:24.901Z,11.47
2018-12-08T11:32:54.328Z,11.60
2018-12-08T11:35:23.603Z,11.25
2018-12-08T11:37:52.814Z,11.07
2018-12-08T11:40:22.383Z,11.53
2018-12-08T11:42:51.805Z,11.82
2018-12-08T11:45:21.181Z,11.17
2018-12-08T11:47:51.048Z,11.57
2018-12-08T11:50:20.587Z,11.53
2018-12-08T11:53:09.773Z,11.83
2018-12-08T11:55:39.562Z,11.78
2018-12-08T11:58:11.635Z,11.75
2018-12-08T12:03:31.208Z,11.63
2018-12-08T12:06:00.831Z,11.93
2018-12-08T12:08:30.225Z,11.39
2018-12-08T12:10:59.899Z,11.36
2018-12-08T12:13:42.584Z,11.85
2018-12-08T12:16:12.405Z,11.40
2018-12-08T12:22:01.858Z,11.42
2018-12-08T12:24:45.531Z,11.57
2018-12-08T12:27:15.125Z,11.63
2018-12-08T12:29:44.889Z,11.55
2018-12-08T12:32:16.500Z,10.83
2018-12-08T12:35:33.613Z,10.54
2018-12-08T12:38:03.017Z,11.34
2018-12-08T12:40:32.325Z,11.37
2018-12-08T12:43:01.520Z,10.72
2018-12-08T12:45:30.836Z,11.07
2018-12-08T12:48:02.056Z,11.07
2018-12-08T12:50:31.544Z,11.03
2018-12-08T12:53:02.536Z,11.35
2018-12-08T12:55:32.807Z,11.36
2018-12-08T12:58:02.997Z,11.62
2018-12-08T13:00:32.151Z,11.87
2018-12-08T13:10:00.855Z,11.09
2018-12-08T13:12:30.388Z,10.99
2018-12-08T13:14:59.849Z,11.16
2018-12-08T13:17:29.830Z,11.59
2018-12-08T13:19:59.240Z,11.31
2018-12-08T13:22:29.146Z,11.58
2018-12-08T13:25:14.730Z,11.75
2018-12-08T13:27:44.361Z,11.68
2018-12-08T13:30:16.156Z,11.37
2018-12-08T13:32:45.748Z,11.44
2018-12-08T13:35:32.004Z,10.70
2018-12-08T13:38:01.683Z,11.35
2018-12-08T13:40:30.780Z,12.16
2018-12-08T13:43:00.361Z,12.39
2018-12-08T13:48:14.043Z,12.07
2018-12-08T13:50:44.159Z,10.91
2018-12-08T13:53:13.985Z,11.36
2018-12-08T13:55:43.224Z,11.79
2018-12-08T13:58:12.642Z,10.98
2018-12-08T14:00:42.697Z,10.99
2018-12-08T14:03:12.291Z,10.34
2018-12-08T14:05:42.868Z,11.02
2018-12-08T14:08:12.201Z,11.51
2018-12-08T14:10:41.731Z,11.11
2018-12-08T14:13:11.143Z,11.18
2018-12-08T14:15:40.392Z,11.21
2018-12-08T14:18:10.067Z,11.25
2018-12-08T14:20:39.254Z,11.26
2018-12-08T14:23:08.753Z,11.08
2018-12-08T14:25:37.956Z,11.46
2018-12-08T14:28:07.734Z,11.21
2018-12-08T14:30:36.976Z,11.29
2018-12-08T14:33:06.148Z,11.25
2018-12-08T14:35:35.256Z,11.35
2018-12-08T14:38:04.594Z,11.40
2018-12-08T14:40:34.106Z,11.15
2018-12-08T14:43:03.477Z,10.98
2018-12-08T14:45:34.190Z,11.20
2018-12-08T14:48:03.420Z,10.97
2018-12-08T14:50:32.945Z,10.93
2018-12-08T14:53:02.383Z,11.05
2018-12-08T14:55:34.999Z,11.18
2018-12-08T14:58:04.328Z,11.24
2018-12-08T15:00:33.900Z,11.16
2018-12-08T15:03:11.319Z,11.05
2018-12-08T15:05:40.553Z,11.25
2018-12-08T15:08:09.956Z,11.17
2018-12-08T15:10:54.119Z,10.53
2018-12-08T15:13:23.501Z,11.07
2018-12-08T15:15:53.755Z,11.10
2018-12-08T15:18:23.292Z,11.14
2018-12-08T15:20:52.888Z,10.65
2018-12-08T15:23:22.023Z,10.67
2018-12-08T15:25:51.292Z,10.91
2018-12-08T15:28:20.447Z,11.18
2018-12-08T15:30:49.707Z,11.16
2018-12-08T15:33:19.276Z,11.40
2018-12-08T15:35:48.704Z,11.28
2018-12-08T15:38:17.917Z,11.22
2018-12-08T15:40:47.764Z,11.22
2018-12-08T15:43:17.226Z,11.26
2018-12-08T15:45:46.444Z,11.24
2018-12-08T15:48:15.746Z,11.11
2018-12-08T15:50:45.222Z,10.97
2018-12-08T15:53:14.635Z,10.85
2018-12-08T15:55:43.789Z,11.12
2018-12-08T15:58:15.735Z,11.39
2018-12-08T16:00:45.003Z,11.38
2018-12-08T16:03:14.125Z,11.40
2018-12-08T16:05:43.777Z,11.51
2018-12-08T16:08:13.287Z,11.52
2018-12-08T16:10:42.583Z,10.89
2018-12-08T16:13:14.595Z,11.05
2018-12-08T16:15:44.120Z,11.35
2018-12-08T16:18:13.672Z,10.62
2018-12-08T16:20:43.068Z,10.79
2018-12-08T16:23:12.551Z,10.96
2018-12-08T16:25:42.090Z,10.95
2018-12-08T16:28:11.383Z,11.02
2018-12-08T16:30:40.513Z,11.01
2018-12-08T16:33:09.690Z,10.17
2018-12-08T16:35:39.203Z,10.86
2018-12-08T16:38:08.499Z,11.16
2018-12-08T16:40:39.076Z,11.20
2018-12-08T16:43:08.169Z,11.37
2018-12-08T16:45:37.323Z,10.66
2018-12-08T16:48:06.434Z,11.03
2018-12-08T16:50:35.757Z,11.01
2018-12-08T16:53:05.251Z,10.41
2018-12-08T16:55:35.079Z,11.08
2018-12-08T16:58:04.263Z,10.63
2018-12-08T17:00:33.660Z,10.94
2018-12-08T17:03:04.192Z,10.68
2018-12-08T17:05:34.087Z,10.76
2018-12-08T17:08:05.404Z,11.32
2018-12-08T17:10:34.536Z,11.03
2018-12-08T17:13:03.994Z,10.81
2018-12-08T17:15:33.377Z,11.05
2018-12-08T17:18:02.810Z,10.99
2018-12-08T17:20:32.627Z,10.41
2018-12-08T17:23:01.812Z,10.91
2018-12-08T17:25:30.969Z,10.79
2018-12-08T17:28:00.416Z,11.09
2018-12-08T17:30:29.974Z,11.19
2018-12-08T17:32:59.380Z,10.75
2018-12-08T17:35:28.577Z,11.06
2018-12-08T17:37:59.000Z,10.57
2018-12-08T17:40:28.191Z,10.87
2018-12-08T17:42:57.889Z,10.62
2018-12-08T17:45:27.211Z,10.81
2018-12-08T17:47:56.613Z,11.04
2018-12-08T17:50:26.193Z,10.52
2018-12-08T17:52:55.324Z,11.00
2018-12-08T17:55:24.633Z,10.40
2018-12-08T17:57:54.057Z,11.48
2018-12-08T18:00:23.238Z,10.95
2018-12-08T18:02:53.583Z,11.20
2018-12-08T18:05:22.804Z,11.50
2018-12-08T18:07:51.857Z,11.66
2018-12-08T18:10:21.471Z,11.25
2018-12-08T18:12:50.679Z,11.45
2018-12-08T18:15:19.938Z,11.51
2018-12-08T18:17:49.142Z,11.57
2018-12-08T18:20:18.401Z,11.56
2018-12-08T18:22:47.733Z,11.31
2018-12-08T18:25:19.120Z,10.98
2018-12-08T18:27:48.781Z,11.42
2018-12-08T18:30:18.263Z,10.95
2018-12-08T18:32:50.596Z,11.45
2018-12-08T18:35:19.683Z,11.67
2018-12-08T18:37:51.947Z,11.19
2018-12-08T18:40:21.469Z,11.03
2018-12-08T18:42:50.781Z,10.86
2018-12-08T18:45:20.225Z,10.90
2018-12-08T18:47:49.536Z,10.99
2018-12-08T18:50:27.710Z,11.27
2018-12-08T18:52:56.994Z,11.19
2018-12-08T18:55:26.266Z,10.97
2018-12-08T18:57:56.072Z,10.90
2018-12-08T19:00:25.457Z,11.38
2018-12-08T19:02:55.855Z,11.40
2018-12-08T19:05:25.464Z,11.47
2018-12-08T19:07:55.051Z,10.93
2018-12-08T19:10:24.983Z,10.83
2018-12-08T19:12:54.489Z,11.40
2018-12-08T19:15:23.707Z,11.07
2018-12-08T19:17:52.976Z,10.63
2018-12-08T19:20:22.138Z,10.59
2018-12-08T19:22:51.576Z,10.86
2018-12-08T19:25:20.743Z,11.50
2018-12-08T19:27:52.060Z,10.70
2018-12-08T19:30:22.123Z,11.05
2018-12-08T19:32:53.206Z,11.44
2018-12-08T19:35:24.776Z,10.85
2018-12-08T19:37:54.585Z,10.89
2018-12-08T19:40:23.765Z,10.92
2018-12-08T19:42:53.703Z,10.39
2018-12-08T19:45:23.345Z,11.02
2018-12-08T19:47:52.780Z,11.12
2018-12-08T19:50:21.956Z,10.69
2018-12-08T19:52:51.384Z,10.32
2018-12-08T19:55:21.380Z,10.75
2018-12-08T19:57:51.888Z,11.28
2018-12-08T20:00:21.408Z,11.26
2018-12-08T20:02:51.938Z,11.44
2018-12-08T20:05:21.652Z,11.34
2018-12-08T20:07:50.801Z,10.92
2018-12-08T20:10:20.722Z,11.15
2018-12-08T20:13:55.492Z,11.15
2018-12-08T20:16:24.801Z,11.22
2018-12-08T20:18:54.200Z,10.52
2018-12-08T20:21:23.630Z,10.72
2018-12-08T20:23:53.979Z,11.01
2018-12-08T20:26:23.347Z,10.62
2018-12-08T20:28:54.067Z,11.11
2018-12-08T20:31:25.552Z,11.15
2018-12-08T20:33:54.819Z,11.15
2018-12-08T20:36:24.379Z,10.83
2018-12-08T20:38:53.839Z,10.94
2018-12-08T20:41:23.502Z,11.11
2018-12-08T20:43:52.763Z,11.19
2018-12-08T20:46:23.337Z,11.19
2018-12-08T20:48:52.595Z,10.90
2018-12-08T20:51:23.000Z,11.13
2018-12-08T20:53:54.556Z,10.88
2018-12-08T20:59:03.471Z,11.10
2018-12-08T21:01:36.548Z,11.13
2018-12-08T21:06:44.301Z,10.97
2018-12-08T21:09:16.540Z,10.76
2018-12-08T21:11:45.872Z,10.64
2018-12-08T21:14:16.733Z,10.89
2018-12-08T21:16:46.176Z,10.80
2018-12-08T21:19:16.606Z,10.98
2018-12-08T21:21:50.938Z,10.84
2018-12-08T21:24:20.489Z,10.83
2018-12-08T21:26:51.230Z,10.68
2018-12-08T21:29:20.492Z,10.50
2018-12-08T21:31:50.900Z,10.80
2018-12-08T21:34:20.396Z,10.55
2018-12-08T21:36:49.725Z,10.71
2018-12-08T21:39:18.938Z,10.80
2018-12-08T21:41:48.542Z,10.68
2018-12-08T21:44:18.355Z,10.51
2018-12-08T21:46:51.402Z,10.45
2018-12-08T21:49:21.184Z,10.68
2018-12-08T21:51:53.120Z,10.64
2018-12-08T21:54:22.692Z,10.65
2018-12-08T21:56:52.278Z,10.67
2018-12-08T21:59:21.427Z,10.25
2018-12-08T22:01:50.757Z,10.56
2018-12-08T22:04:20.225Z,10.71
2018-12-08T22:06:49.511Z,10.59
2018-12-08T22:09:19.200Z,10.45
2018-12-08T22:11:49.867Z,10.57
2018-12-08T22:17:01.829Z,10.63
2018-12-08T22:19:33.168Z,10.65
2018-12-08T22:22:02.887Z,10.45
2018-12-08T22:24:33.580Z,10.55
2018-12-08T22:27:02.816Z,10.61
2018-12-08T22:29:33.449Z,10.60
2018-12-08T22:32:03.322Z,10.49
2018-12-08T22:34:34.740Z,10.39
2018-12-08T22:37:04.824Z,10.69
2018-12-08T22:39:35.533Z,10.43
2018-12-08T22:42:05.397Z,10.79
2018-12-08T22:44:36.760Z,10.89
2018-12-08T22:47:07.462Z,10.31
2018-12-08T22:49:37.410Z,10.83
2018-12-08T22:52:07.638Z,11.14
2018-12-08T22:54:38.237Z,11.08
2018-12-08T22:57:07.870Z,10.63
2018-12-08T22:59:38.314Z,10.77
2018-12-08T23:02:08.572Z,10.80
2018-12-08T23:04:38.300Z,10.70
2018-12-08T23:07:08.065Z,10.46
2018-12-08T23:09:37.721Z,11.03
2018-12-08T23:12:07.084Z,10.91
2018-12-08T23:14:36.683Z,11.08
2018-12-08T23:17:06.058Z,11.10
2018-12-08T23:19:35.400Z,11.40
2018-12-08T23:22:04.854Z,11.20
2018-12-08T23:24:34.404Z,11.09
2018-12-08T23:27:04.445Z,11.06
2018-12-08T23:29:34.459Z,11.28
2018-12-08T23:32:04.897Z,11.28
2018-12-08T23:34:34.130Z,11.29
2018-12-08T23:37:03.851Z,11.17
2018-12-08T23:39:38.861Z,11.21
2018-12-08T23:42:05.172Z,11.22
2018-12-08T23:44:35.068Z,11.17
2018-12-08T23:47:04.619Z,11.07
2018-12-08T23:49:33.890Z,11.29
2018-12-08T23:52:03.323Z,11.32
2018-12-08T23:54:32.475Z,11.18
2018-12-08T23:57:01.779Z,11.17
2018-12-08T23:59:32.004Z,11.14
